Time;durP1;ratioP1;P1;durP2;ratioP2;P2;SDS_P1;SDS_P2;PMS_P1;PMS_P2;Temp;Humidity;BMP_temperature;BMP_pressure;BME280_temperature;BME280_humidity;BME280_pressure;Samples;Min_cycle;Max_cycle;Signal;HPM_P1;HPM_P2
2023/04/15 04:22:40;;;;;;;0.90;0.90;;;;;;;1.36;100.00;99298.91;5089558;28;20389;-70
2023/04/15 04:25:07;;;;;;;1.30;1.20;;;;;;;1.41;100.00;99304.59;5089513;28;20093;-69
2023/04/15 04:27:33;;;;;;;1.30;1.20;;;;;;;1.46;100.00;99312.06;5089226;28;20460;-70
2023/04/15 04:29:58;;;;;;;3.15;1.45;;;;;;;1.46;100.00;99312.88;5089338;28;20044;-70
2023/04/15 04:32:23;;;;;;;2.80;1.52;;;;;;;1.46;100.00;99314.69;5089322;28;20037;-71
2023/04/15 04:34:49;;;;;;;3.53;1.60;;;;;;;1.42;100.00;99305.41;5089260;28;20123;-70
2023/04/15 04:37:14;;;;;;;1.67;1.40;;;;;;;1.54;100.00;99318.25;5088928;28;20036;-70
2023/04/15 04:39:40;;;;;;;1.63;1.45;;;;;;;1.53;100.00;99318.41;5089201;28;20028;-69
2023/04/15 04:42:05;;;;;;;1.65;1.30;;;;;;;1.51;100.00;99317.72;5089168;28;20041;-69
2023/04/15 04:44:31;;;;;;;1.65;1.35;;;;;;;1.51;100.00;99318.56;5089150;28;20101;-70
2023/04/15 04:46:56;;;;;;;2.05;1.45;;;;;;;1.61;100.00;99316.75;5088739;28;20123;-70
2023/04/15 04:49:22;;;;;;;4.35;1.25;;;;;;;1.61;100.00;99321.16;5087843;28;20064;-69
2023/04/15 04:51:47;;;;;;;4.28;1.40;;;;;;;1.56;100.00;99323.38;5089012;28;20473;-69
2023/04/15 04:54:13;;;;;;;1.35;1.20;;;;;;;1.53;100.00;99319.25;5088911;28;20137;-69
2023/04/15 04:56:38;;;;;;;3.63;1.38;;;;;;;1.48;100.00;99324.06;5088761;28;20044;-70
2023/04/15 04:59:04;;;;;;;3.03;1.85;;;;;;;1.43;100.00;99314.94;5088567;28;20029;-70
2023/04/15 05:01:29;;;;;;;1.85;0.98;;;;;;;1.45;100.00;99323.53;5088752;28;20386;-70
2023/04/15 05:03:55;;;;;;;2.08;1.15;;;;;;;1.36;100.00;99327.78;5088800;28;20373;-70
2023/04/15 05:06:20;;;;;;;1.20;1.05;;;;;;;1.35;100.00;99331.38;5088507;28;20405;-69
2023/04/15 05:08:46;;;;;;;3.03;1.48;;;;;;;1.51;100.00;99336.09;5088295;28;20543;-70
2023/04/15 05:11:12;;;;;;;2.50;1.38;;;;;;;1.51;100.00;99336.94;5088682;28;20123;-69
2023/04/15 05:13:37;;;;;;;3.05;1.95;;;;;;;1.56;100.00;99329.44;5088574;28;20052;-70
2023/04/15 05:16:06;;;;;;;5.55;1.55;;;;;;;1.64;100.00;99339.28;5088522;28;20123;-70
2023/04/15 05:18:32;;;;;;;8.85;1.67;;;;;;;1.75;100.00;99333.88;5088234;28;20097;-70
2023/04/15 05:20:58;;;;;;;1.55;1.45;;;;;;;1.84;100.00;99343.56;5088271;28;20032;-69
2023/04/15 05:23:23;;;;;;;2.55;1.50;;;;;;;1.90;100.00;99327.25;5088413;28;20028;-70
2023/04/15 05:25:49;;;;;;;2.38;1.63;;;;;;;1.88;100.00;99334.41;5088338;28;20038;-69
2023/04/15 05:28:14;;;;;;;1.52;1.17;;;;;;;1.99;100.00;99335.25;5088032;28;20547;-69
2023/04/15 05:30:40;;;;;;;1.20;1.10;;;;;;;2.03;100.00;99324.31;5088194;28;20094;-70
2023/04/15 05:33:05;;;;;;;1.27;1.08;;;;;;;2.15;100.00;99333.69;5079316;28;20028;-70
2023/04/15 05:35:31;;;;;;;2.03;1.50;;;;;;;2.39;100.00;99338.47;5074649;28;20032;-70
2023/04/15 05:37:56;;;;;;;2.08;1.65;;;;;;;2.42;100.00;99335.56;5074339;28;20558;-71
2023/04/15 05:40:22;;;;;;;1.58;1.23;;;;;;;2.56;100.00;99338.69;5074628;28;20036;-70
2023/04/15 05:42:47;;;;;;;2.15;1.20;;;;;;;2.73;100.00;99337.91;5074523;28;20040;-70
2023/04/15 05:45:13;;;;;;;1.58;1.10;;;;;;;2.85;100.00;99343.81;5074417;28;20044;-65
2023/04/15 05:47:38;;;;;;;1.35;1.25;;;;;;;2.92;100.00;99337.84;5060566;28;20045;-65
2023/04/15 05:50:04;;;;;;;3.45;1.48;;;;;;;3.03;100.00;99336.81;5054577;28;20068;-66
2023/04/15 05:52:30;;;;;;;4.70;1.48;;;;;;;3.16;100.00;99342.56;5054340;28;20044;-64
2023/04/15 05:54:56;;;;;;;1.52;1.42;;;;;;;3.24;100.00;99344.44;5054288;28;20037;-66
2023/04/15 05:57:21;;;;;;;1.42;1.10;;;;;;;3.41;100.00;99348.91;5053804;28;20082;-66
2023/04/15 05:59:48;;;;;;;3.80;1.25;;;;;;;3.50;100.00;99345.38;5054238;28;20140;-55
2023/04/15 06:02:13;;;;;;;1.15;0.98;;;;;;;3.83;100.00;99350.09;5054346;28;20036;-55
2023/04/15 06:04:38;;;;;;;1.83;1.58;;;;;;;4.06;100.00;99348.66;5054122;28;20520;-55
2023/04/15 06:07:04;;;;;;;2.92;1.27;;;;;;;4.29;100.00;99349.81;5053742;28;20044;-57
2023/04/15 06:09:29;;;;;;;1.45;1.30;;;;;;;4.53;100.00;99343.03;5054010;28;20069;-56
2023/04/15 06:11:56;;;;;;;3.38;2.00;;;;;;;4.73;100.00;99344.47;5053894;28;20041;-64
2023/04/15 06:14:22;;;;;;;8.65;4.30;;;;;;;4.87;100.00;99349.13;5054062;28;20072;-65
2023/04/15 06:16:47;;;;;;;12.70;5.00;;;;;;;5.09;100.00;99358.31;5053812;28;20635;-66
2023/04/15 06:19:13;;;;;;;7.15;4.03;;;;;;;5.22;100.00;99357.03;5053973;28;20095;-64
2023/04/15 06:21:38;;;;;;;3.17;2.20;;;;;;;5.33;100.00;99356.72;5053671;28;20482;-64
2023/04/15 06:24:04;;;;;;;2.40;1.67;;;;;;;5.44;99.62;99367.00;5053821;28;20261;-64
2023/04/15 06:26:30;;;;;;;7.20;3.92;;;;;;;5.66;100.00;99365.53;5053628;28;20045;-64
2023/04/15 06:28:55;;;;;;;5.00;3.00;;;;;;;5.80;99.84;99361.41;5053487;28;20029;-65
2023/04/15 06:31:22;;;;;;;4.68;3.20;;;;;;;5.88;98.81;99364.91;5052394;28;20082;-66
2023/04/15 06:33:47;;;;;;;3.50;2.25;;;;;;;5.89;97.02;99363.09;5053625;28;20048;-65
2023/04/15 06:36:13;;;;;;;5.15;3.47;;;;;;;5.83;95.94;99339.97;5053437;28;20029;-66
2023/04/15 06:38:38;;;;;;;4.70;2.45;;;;;;;6.03;97.75;99357.19;5053200;28;20045;-65
2023/04/15 06:41:04;;;;;;;2.60;1.73;;;;;;;6.08;93.92;99360.16;5052265;28;20072;-65
2023/04/15 06:43:29;;;;;;;3.03;2.00;;;;;;;6.18;93.38;99358.16;5053151;28;20045;-65
2023/04/15 06:45:56;;;;;;;4.60;2.47;;;;;;;6.36;93.58;99365.09;5052732;28;20087;-66
2023/04/15 06:48:22;;;;;;;3.25;2.35;;;;;;;6.56;93.84;99368.19;5053084;28;20040;-66
2023/04/15 06:50:48;;;;;;;7.32;5.15;;;;;;;6.90;95.47;99360.00;5051920;28;20405;-66
2023/04/15 06:53:14;;;;;;;3.92;2.53;;;;;;;7.00;88.46;99358.81;5053222;28;20037;-65
2023/04/15 06:55:40;;;;;;;2.47;1.90;;;;;;;7.06;87.20;99354.66;5053005;28;20041;-65
2023/04/15 06:58:06;;;;;;;3.85;2.65;;;;;;;7.37;88.94;99359.09;5052962;28;20127;-66
2023/04/15 07:00:32;;;;;;;2.83;2.30;;;;;;;7.45;87.00;99362.56;5053224;28;20035;-66
2023/04/15 07:02:59;;;;;;;2.83;1.50;;;;;;;7.53;83.13;99356.38;5053087;28;20478;-65
2023/04/15 07:05:25;;;;;;;5.57;3.23;;;;;;;7.78;84.84;99352.56;5052892;28;20049;-65
2023/04/15 07:07:50;;;;;;;4.05;2.20;;;;;;;8.04;83.07;99356.69;5052567;28;20036;-65
2023/04/15 07:10:16;;;;;;;4.68;3.33;;;;;;;8.38;84.20;99351.75;5052736;28;20047;-66
2023/04/15 07:12:41;;;;;;;2.58;1.92;;;;;;;8.21;76.92;99342.25;5052887;28;20514;-53
2023/04/15 07:15:07;;;;;;;4.55;1.88;;;;;;;8.14;77.69;99352.75;5052738;28;20045;-65
2023/04/15 07:17:33;;;;;;;2.60;1.70;;;;;;;8.34;79.52;99354.91;5052450;28;20051;-65
2023/04/15 07:19:58;;;;;;;1.83;1.45;;;;;;;8.49;79.46;99353.16;5051547;28;20174;-65
2023/04/15 07:22:24;;;;;;;1.92;1.23;;;;;;;8.59;77.08;99369.63;5052520;28;20029;-66
2023/04/15 07:24:49;;;;;;;2.90;1.80;;;;;;;8.68;78.22;99363.25;5052527;28;20490;-65
2023/04/15 07:27:15;;;;;;;2.25;1.63;;;;;;;8.75;75.92;99360.69;5052209;28;20045;-66
2023/04/15 07:29:41;;;;;;;2.05;1.67;;;;;;;8.75;73.71;99355.38;5052464;28;20047;-66
2023/04/15 07:32:06;;;;;;;2.72;1.40;;;;;;;8.83;72.52;99367.72;5052405;28;20064;-65
2023/04/15 07:34:31;;;;;;;1.52;1.42;;;;;;;8.87;73.10;99367.19;5052452;28;20036;-65
2023/04/15 07:36:57;;;;;;;3.78;1.40;;;;;;;8.90;73.05;99366.81;5052057;28;20043;-65
2023/04/15 07:39:22;;;;;;;5.03;1.90;;;;;;;9.02;72.77;99372.50;5052301;28;20084;-66
2023/04/15 07:41:48;;;;;;;2.15;1.63;;;;;;;9.01;71.90;99364.72;5052233;28;20033;-66
2023/04/15 07:44:13;;;;;;;2.75;1.67;;;;;;;9.02;69.38;99366.34;5052348;28;20124;-65
2023/04/15 07:46:39;;;;;;;3.67;1.63;;;;;;;9.10;69.96;99374.22;5050840;28;20044;-66
2023/04/15 07:49:04;;;;;;;2.88;1.52;;;;;;;9.12;71.08;99375.66;5050950;28;20037;-66
2023/04/15 07:51:31;;;;;;;2.90;1.50;;;;;;;9.32;70.78;99373.25;5052110;28;20093;-65
2023/04/15 07:53:56;;;;;;;2.33;1.73;;;;;;;9.47;70.48;99375.91;5050923;28;20033;-64
2023/04/15 07:56:22;;;;;;;2.75;1.58;;;;;;;9.22;69.46;99372.75;5050908;28;20422;-64
2023/04/15 07:58:47;;;;;;;1.95;1.38;;;;;;;9.46;72.38;99372.44;5051836;28;20037;-63
2023/04/15 08:01:12;;;;;;;2.25;1.35;;;;;;;9.51;72.36;99367.34;5052065;28;20478;-65
2023/04/15 08:03:38;;;;;;;2.22;1.52;;;;;;;9.71;69.23;99372.06;5052207;28;20040;-64
2023/04/15 08:06:04;;;;;;;2.78;1.55;;;;;;;9.72;69.14;99366.56;5050732;28;20044;-65
2023/04/15 08:08:29;;;;;;;2.95;1.13;;;;;;;9.66;66.79;99363.84;5051553;28;20069;-65
2023/04/15 08:10:55;;;;;;;1.02;0.90;;;;;;;9.62;66.43;99368.72;5051775;28;20044;-65
2023/04/15 08:13:21;;;;;;;2.00;1.20;;;;;;;9.73;69.37;99359.41;5051964;28;20399;-65
2023/04/15 08:16:12;;;;;;;4.20;2.35;;;;;;;10.05;66.92;99366.91;5051762;28;20049;-64
2023/04/15 08:18:37;;;;;;;1.08;0.93;;;;;;;10.13;67.12;99367.78;5051574;28;20562;-65
2023/04/15 08:21:03;;;;;;;1.77;1.08;;;;;;;10.39;63.42;99365.34;5051643;28;20119;-64
2023/04/15 08:23:28;;;;;;;1.90;1.40;;;;;;;10.60;67.21;99373.28;5051796;28;20568;-63
2023/04/15 08:25:54;;;;;;;1.42;1.20;;;;;;;10.68;63.44;99372.31;5051664;28;20124;-64
2023/04/15 08:28:20;;;;;;;2.35;1.88;;;;;;;10.85;63.42;99371.00;5051371;28;20421;-65
2023/04/15 08:30:45;;;;;;;1.52;1.25;;;;;;;10.83;62.63;99374.88;5051754;28;20482;-65
2023/04/15 08:33:11;;;;;;;3.70;2.08;;;;;;;11.14;63.53;99367.25;5051718;28;20047;-66
2023/04/15 08:35:36;;;;;;;2.45;1.80;;;;;;;11.33;61.65;99367.53;5051567;28;20088;-54
2023/04/15 08:38:02;;;;;;;3.63;2.28;;;;;;;11.63;64.63;99368.88;5051492;28;20437;-53
2023/04/15 08:40:39;;;;;;;6.38;1.92;;;;;;;11.80;64.90;99376.47;5051671;28;20032;-55
2023/04/15 08:43:11;;;;;;;2.20;1.55;;;;;;;11.83;63.49;99370.78;5051641;28;20112;-52
2023/04/15 08:45:41;;;;;;;2.08;1.20;;;;;;;11.89;60.68;99372.66;5051575;28;20040;-56
2023/04/15 08:48:12;;;;;;;2.92;1.45;;;;;;;12.10;61.49;99380.47;5051130;28;20075;-56
2023/04/15 08:50:38;;;;;;;3.70;1.60;;;;;;;12.29;60.66;99368.16;5051466;28;20044;-57
2023/04/15 08:53:05;;;;;;;1.63;1.30;;;;;;;12.51;59.36;99374.09;5051559;28;20045;-57
2023/04/15 08:55:34;;;;;;;1.60;1.23;;;;;;;12.72;60.02;99379.25;5051353;28;20048;-59
2023/04/15 08:58:01;;;;;;;2.20;1.23;;;;;;;12.74;56.58;99376.34;5051171;28;20098;-58
2023/04/15 09:00:28;;;;;;;1.83;1.30;;;;;;;12.56;55.72;99373.50;5051454;28;20056;-58
2023/04/15 09:02:55;;;;;;;1.75;1.15;;;;;;;12.67;56.91;99370.19;5051436;28;20039;-54
2023/04/15 09:05:21;;;;;;;2.55;1.25;;;;;;;12.72;55.19;99378.41;5050996;28;20037;-52
2023/04/15 09:07:49;;;;;;;2.10;1.30;;;;;;;12.64;56.22;99379.44;5052237;28;20041;-64
2023/04/15 09:10:14;;;;;;;1.90;1.38;;;;;;;12.79;56.59;99379.22;5055155;28;20257;-65
2023/04/15 09:12:40;;;;;;;2.20;1.65;;;;;;;12.83;55.16;99380.44;5055084;28;20498;-63
2023/04/15 09:15:09;;;;;;;2.33;1.17;;;;;;;13.02;57.47;99384.09;5054990;28;20083;-66
2023/04/15 09:17:42;;;;;;;2.83;1.33;;;;;;;13.07;58.61;99381.63;5053598;28;20037;-65
2023/04/15 09:20:12;;;;;;;3.03;1.23;;;;;;;13.02;56.70;99384.09;5054950;28;20048;-65
2023/04/15 09:22:42;;;;;;;1.85;1.40;;;;;;;13.00;57.19;99381.63;5055013;28;20060;-64
2023/04/15 09:25:29;;;;;;;2.03;1.38;;;;;;;13.08;56.56;99385.13;5055077;28;20363;-64
2023/04/15 09:27:57;;;;;;;6.53;1.80;;;;;;;13.16;55.74;99384.88;5054646;28;20039;-65
2023/04/15 09:30:22;;;;;;;2.15;1.20;;;;;;;13.18;56.43;99391.66;5054859;28;20041;-64
2023/04/15 09:32:55;;;;;;;2.33;1.48;;;;;;;13.16;54.55;99392.91;5055030;28;20401;-66
2023/04/15 09:35:23;;;;;;;2.38;1.67;;;;;;;13.49;56.09;99401.66;5054834;28;20056;-66
2023/04/15 09:37:49;;;;;;;2.00;1.48;;;;;;;13.42;55.45;99400.84;5054666;28;20103;-63
2023/04/15 09:40:34;;;;;;;2.65;1.50;;;;;;;13.57;56.89;99408.63;5054699;28;20056;-65
2023/04/15 09:43:00;;;;;;;2.90;1.60;;;;;;;13.85;55.12;99414.44;5055074;28;20029;-66
2023/04/15 09:45:27;;;;;;;3.58;1.98;;;;;;;13.99;53.56;99407.16;5054976;28;20106;-65
2023/04/15 09:47:52;;;;;;;6.75;3.15;;;;;;;14.40;53.94;99411.19;5054289;28;20111;-65
2023/04/15 09:50:19;;;;;;;5.70;2.55;;;;;;;14.52;53.79;99414.03;5054474;28;20107;-53
2023/04/15 09:52:45;;;;;;;3.97;2.90;;;;;;;14.58;54.47;99407.78;5054335;28;20477;-57
2023/04/15 09:55:11;;;;;;;2.25;1.55;;;;;;;14.42;55.15;99424.41;5054257;28;20045;-66
2023/04/15 09:57:40;;;;;;;3.17;1.85;;;;;;;14.47;53.82;99424.56;5054052;28;20052;-66
2023/04/15 10:00:07;;;;;;;3.83;1.65;;;;;;;13.97;54.21;99427.16;5054278;28;20037;-66
2023/04/15 10:02:35;;;;;;;2.80;1.50;;;;;;;13.93;55.19;99420.59;5054119;28;20029;-66
2023/04/15 10:05:01;;;;;;;1.95;1.60;;;;;;;14.06;52.44;99421.31;5054237;28;20037;-66
2023/04/15 10:07:27;;;;;;;2.08;1.50;;;;;;;14.08;51.79;99421.09;5053783;28;20048;-66
2023/04/15 10:09:53;;;;;;;2.22;1.90;;;;;;;13.99;54.40;99430.44;5054043;28;20036;-66
2023/04/15 10:12:20;;;;;;;2.67;1.60;;;;;;;14.02;54.11;99430.03;5053944;28;20037;-65
2023/04/15 10:14:57;;;;;;;3.15;1.95;;;;;;;14.03;57.48;99429.81;5054036;28;20040;-67
2023/04/15 10:17:27;;;;;;;3.22;1.70;;;;;;;14.37;57.77;99430.41;5052293;28;20075;-66
2023/04/15 10:19:53;;;;;;;1.90;1.70;;;;;;;14.15;56.07;99432.63;5053788;28;20037;-67
2023/04/15 10:22:19;;;;;;;3.00;1.90;;;;;;;14.65;58.40;99428.13;5053752;28;20523;-65
2023/04/15 10:24:46;;;;;;;2.15;1.90;;;;;;;14.90;58.19;99420.06;5053808;28;20044;-67
2023/04/15 10:27:13;;;;;;;4.10;2.17;;;;;;;14.94;60.55;99425.81;5052057;28;20052;-68
2023/04/15 10:29:39;;;;;;;2.28;1.63;;;;;;;15.27;54.04;99427.34;5053637;28;20041;-68
2023/04/15 10:32:05;;;;;;;1.50;1.40;;;;;;;15.12;50.99;99419.63;5053399;28;20047;-67
2023/04/15 10:34:31;;;;;;;3.75;2.00;;;;;;;15.70;53.80;99430.75;5053497;28;20036;-67
2023/04/15 10:37:03;;;;;;;2.35;1.70;;;;;;;15.94;55.46;99429.00;5053562;28;20040;-67
2023/04/15 10:39:32;;;;;;;2.20;1.65;;;;;;;16.37;52.93;99432.53;5053444;28;20409;-67
2023/04/15 10:42:06;;;;;;;3.03;1.92;;;;;;;16.46;48.83;99423.88;5053431;28;20039;-67
2023/04/15 10:44:31;;;;;;;2.17;1.60;;;;;;;16.65;52.63;99437.25;5053464;28;20036;-65
2023/04/15 10:46:57;;;;;;;2.22;1.63;;;;;;;16.71;47.51;99437.16;5052913;28;20043;-66
2023/04/15 10:49:24;;;;;;;3.08;2.13;;;;;;;16.23;48.66;99442.63;5053228;28;20035;-66
2023/04/15 10:51:52;;;;;;;3.20;2.00;;;;;;;16.61;47.60;99442.25;5053200;28;20041;-65
2023/04/15 10:54:24;;;;;;;;;;;;;;;16.67;48.70;99448.56;5053639;28;20478;-66
2023/04/15 10:57:07;;;;;;;2.65;1.80;;;;;;;17.18;50.17;99444.41;5052898;28;19912;-67
2023/04/15 10:59:37;;;;;;;2.70;1.70;;;;;;;17.08;49.40;99436.91;5053000;28;20083;-67
2023/04/15 11:02:04;;;;;;;3.05;1.70;;;;;;;17.59;45.76;99443.38;5052950;28;20121;-66
2023/04/15 11:04:58;;;;;;;2.95;2.13;;;;;;;17.85;51.00;99442.88;5053063;28;20470;-66
2023/04/15 11:07:47;;;;;;;2.63;2.08;;;;;;;17.08;44.32;99431.53;5053117;28;20037;-65
2023/04/15 11:10:12;;;;;;;4.22;1.92;;;;;;;17.43;48.76;99438.75;5052910;28;20390;-66
2023/04/15 11:12:39;;;;;;;2.75;2.10;;;;;;;17.52;44.53;99440.81;5052961;28;20036;-67
2023/04/15 11:15:29;;;;;;;2.28;1.92;;;;;;;17.49;46.02;99449.41;5052619;28;20037;-67
2023/04/15 11:18:07;;;;;;;3.33;1.75;;;;;;;17.04;44.49;99443.84;5052526;28;20060;-66
2023/04/15 11:20:32;;;;;;;3.47;1.63;;;;;;;17.24;45.75;99448.84;5052607;28;20045;-66
2023/04/15 11:22:58;;;;;;;3.92;2.30;;;;;;;17.56;46.87;99449.25;5052695;28;20044;-66
2023/04/15 11:25:29;;;;;;;3.17;1.98;;;;;;;16.95;50.94;99459.53;5052486;28;20048;-68
2023/04/15 11:27:55;;;;;;;1.45;1.35;;;;;;;16.85;43.70;99448.50;5052375;28;20037;-67
2023/04/15 11:30:23;;;;;;;2.72;1.33;;;;;;;16.97;47.87;99457.41;5051898;28;20410;-67
2023/04/15 11:33:13;;;;;;;2.00;1.42;;;;;;;17.28;42.46;99453.53;5052510;28;20032;-67
2023/04/15 11:35:40;;;;;;;3.33;1.20;;;;;;;16.50;40.38;99460.00;5052068;28;20490;-67
2023/04/15 11:38:12;;;;;;;2.30;1.92;;;;;;;16.70;43.59;99456.22;5052186;28;20083;-67
2023/04/15 11:40:38;;;;;;;1.50;1.17;;;;;;;17.22;40.33;99457.16;5052366;28;20045;-68
2023/04/15 11:43:09;;;;;;;1.50;1.13;;;;;;;17.81;41.66;99462.47;5052289;28;20124;-68
2023/04/15 11:45:56;;;;;;;1.50;1.30;;;;;;;17.42;41.26;99461.34;5052555;28;20060;-66
2023/04/15 11:48:23;;;;;;;2.08;1.30;;;;;;;17.73;40.11;99465.50;5051881;28;20044;-66
2023/04/15 11:50:54;;;;;;;1.45;1.00;;;;;;;17.49;40.40;99464.72;5052148;28;20069;-67
2023/04/15 11:53:19;;;;;;;2.60;1.35;;;;;;;17.06;44.29;99469.44;5052210;28;20504;-67
2023/04/15 11:55:47;;;;;;;2.70;1.27;;;;;;;17.39;41.33;99468.00;5052065;28;20068;-67
2023/04/15 11:58:12;;;;;;;2.42;1.20;;;;;;;17.12;40.49;99466.88;5051772;28;20044;-68
2023/04/15 12:00:39;;;;;;;1.92;1.30;;;;;;;17.44;42.83;99478.06;5052163;28;20541;-66
2023/04/15 12:03:19;;;;;;;2.60;1.23;;;;;;;17.23;44.95;99484.91;5052062;28;20087;-69
2023/04/15 12:06:18;;;;;;;1.73;1.33;;;;;;;17.60;41.31;99470.09;5052028;28;20045;-67
2023/04/15 12:08:57;;;;;;;2.40;1.20;;;;;;;18.17;42.61;99478.22;5051801;28;20094;-67
2023/04/15 12:11:26;;;;;;;1.77;1.25;;;;;;;19.53;38.18;99474.47;5051954;28;20041;-66
2023/04/15 12:14:14;;;;;;;1.52;1.23;;;;;;;19.55;39.22;99487.72;5051946;28;20466;-67
2023/04/15 12:16:52;;;;;;;1.77;1.25;;;;;;;19.23;38.96;99491.91;5051820;28;20033;-66
2023/04/15 12:19:24;;;;;;;1.08;0.93;;;;;;;19.81;35.02;99497.00;5051668;28;20037;-67
2023/04/15 12:21:50;;;;;;;1.73;1.17;;;;;;;19.68;35.31;99503.59;5051769;28;20431;-66
2023/04/15 12:24:20;;;;;;;1.70;1.25;;;;;;;19.19;38.46;99506.97;5051750;28;20557;-66
2023/04/15 12:26:48;;;;;;;2.00;1.52;;;;;;;18.25;36.66;99503.16;5051657;28;20123;-67
2023/04/15 12:29:16;;;;;;;2.67;1.42;;;;;;;18.81;38.84;99510.41;5051466;28;20612;-66
2023/04/15 12:31:50;;;;;;;2.10;1.55;;;;;;;18.56;37.19;99508.06;5051759;28;20033;-67
2023/04/15 12:34:16;;;;;;;2.72;1.63;;;;;;;19.52;36.66;99518.75;5051619;28;20044;-67
2023/04/15 12:36:42;;;;;;;3.85;1.80;;;;;;;18.66;33.33;99505.56;5051592;28;20033;-66
2023/04/15 12:39:08;;;;;;;4.30;1.85;;;;;;;17.83;36.08;99514.22;5051499;28;20040;-67
2023/04/15 12:41:34;;;;;;;2.72;1.80;;;;;;;17.68;36.93;99514.69;5051663;28;20090;-68
2023/04/15 12:44:00;;;;;;;3.90;1.50;;;;;;;18.47;33.81;99514.91;5054901;28;20118;-66
2023/04/15 12:46:26;;;;;;;2.80;1.60;;;;;;;18.37;33.53;99520.09;5055611;28;20039;-68
2023/04/15 12:48:52;;;;;;;2.97;1.40;;;;;;;18.53;34.72;99524.72;5055378;28;20033;-68
2023/04/15 12:51:17;;;;;;;2.17;1.52;;;;;;;18.26;33.85;99526.38;5055519;28;20041;-68
2023/04/15 12:53:43;;;;;;;2.30;1.27;;;;;;;18.61;33.66;99521.63;5055466;28;20131;-66
2023/04/15 12:56:08;;;;;;;1.80;1.45;;;;;;;17.89;33.50;99522.16;5055394;28;20106;-68
2023/04/15 12:58:34;;;;;;;1.67;1.27;;;;;;;17.34;32.41;99525.25;5055106;28;20045;-68
2023/04/15 13:00:59;;;;;;;2.17;1.17;;;;;;;17.28;32.34;99533.47;5055364;28;20055;-66
2023/04/15 13:03:24;;;;;;;1.33;1.10;;;;;;;17.72;32.58;99523.13;5055265;28;20048;-66
2023/04/15 13:05:51;;;;;;;1.88;1.67;;;;;;;16.81;37.02;99523.44;5055378;28;20386;-67
2023/04/15 13:08:18;;;;;;;2.20;1.15;;;;;;;17.15;33.71;99533.66;5054728;28;20086;-66
2023/04/15 13:10:43;;;;;;;1.13;1.03;;;;;;;17.01;37.48;99533.88;5055125;28;20099;-66
2023/04/15 13:13:08;;;;;;;2.33;1.00;;;;;;;17.11;37.17;99527.94;5055145;28;20064;-68
2023/04/15 13:15:34;;;;;;;1.00;0.90;;;;;;;17.00;35.66;99526.88;5055057;28;20041;-68
2023/04/15 13:17:59;;;;;;;1.70;1.27;;;;;;;17.06;35.46;99531.31;5054815;28;20044;-67
2023/04/15 13:20:25;;;;;;;3.28;1.38;;;;;;;16.43;39.08;99528.34;5054949;28;20438;-66
2023/04/15 13:22:52;;;;;;;2.55;1.52;;;;;;;16.17;38.68;99533.06;5055058;28;20094;-66
2023/04/15 13:25:17;;;;;;;1.88;1.42;;;;;;;16.26;38.70;99534.38;5054778;28;20044;-66
2023/04/15 13:27:43;;;;;;;3.10;1.30;;;;;;;15.64;39.14;99540.91;5054607;28;20032;-66
2023/04/15 13:30:08;;;;;;;1.10;1.00;;;;;;;15.79;38.88;99544.06;5054901;28;20558;-69
2023/04/15 13:32:34;;;;;;;3.45;1.50;;;;;;;15.33;38.85;99550.69;5054824;28;20537;-67
2023/04/15 13:35:00;;;;;;;1.40;1.15;;;;;;;15.66;39.07;99550.38;5054881;28;20041;-66
2023/04/15 13:37:29;;;;;;;2.28;1.40;;;;;;;15.80;38.89;99551.06;5054407;28;20124;-66
2023/04/15 13:39:55;;;;;;;2.67;1.15;;;;;;;15.64;40.49;99560.50;5054659;28;20051;-67
2023/04/15 13:42:21;;;;;;;1.90;1.20;;;;;;;15.63;40.64;99566.09;5054473;28;20033;-67
2023/04/15 13:44:47;;;;;;;1.42;1.25;;;;;;;15.35;41.47;99556.66;5054630;28;20536;-69
2023/04/15 13:47:13;;;;;;;1.80;1.40;;;;;;;15.40;41.30;99564.88;5054209;28;20080;-66
2023/04/15 13:49:39;;;;;;;2.28;1.45;;;;;;;15.12;42.98;99567.97;5054624;28;20203;-68
2023/04/15 13:52:05;;;;;;;2.25;1.30;;;;;;;15.10;43.30;99569.25;5054374;28;20124;-67
2023/04/15 13:54:30;;;;;;;1.73;1.33;;;;;;;14.93;43.76;99585.91;5053876;28;20040;-67
2023/04/15 13:56:56;;;;;;;1.58;1.23;;;;;;;15.10;43.14;99579.97;5054151;28;20397;-67
2023/04/15 13:59:22;;;;;;;3.80;1.45;;;;;;;15.11;43.62;99592.34;5054282;28;20033;-66
2023/04/15 14:01:48;;;;;;;1.90;1.40;;;;;;;15.08;43.44;99596.31;5054437;28;20140;-67
2023/04/15 14:04:14;;;;;;;2.20;1.55;;;;;;;15.14;43.35;99598.13;5054255;28;20041;-68
2023/04/15 14:06:39;;;;;;;1.60;1.20;;;;;;;15.22;43.48;99596.19;5054059;28;20047;-68
2023/04/15 14:09:05;;;;;;;1.83;1.40;;;;;;;14.87;44.45;99599.34;5053934;28;20029;-67
2023/04/15 14:11:30;;;;;;;1.65;1.45;;;;;;;15.00;44.03;99599.25;5053970;28;20036;-66
2023/04/15 14:13:56;;;;;;;2.17;1.30;;;;;;;15.02;44.45;99609.75;5069828;28;20039;-67
2023/04/15 14:16:21;;;;;;;1.50;1.10;;;;;;;14.85;45.45;99610.28;5073928;28;20482;-67
2023/04/15 14:18:47;;;;;;;2.25;1.27;;;;;;;14.85;44.75;99610.28;5073600;28;20048;-66
2023/04/15 14:21:12;;;;;;;2.90;1.35;;;;;;;14.42;45.88;99609.28;5073861;28;20052;-57
2023/04/15 14:23:38;;;;;;;1.83;1.33;;;;;;;14.40;44.79;99606.78;5073870;28;20447;-67
2023/04/15 14:26:03;;;;;;;2.30;1.10;;;;;;;14.43;44.47;99617.09;5073762;28;20036;-67
2023/04/15 14:28:29;;;;;;;1.67;1.13;;;;;;;14.47;44.97;99620.19;5073382;28;20044;-66
2023/04/15 14:30:54;;;;;;;1.70;1.25;;;;;;;14.28;45.38;99617.38;5073711;28;20048;-66
2023/04/15 14:33:20;;;;;;;3.28;1.10;;;;;;;14.24;44.09;99626.84;5073616;28;20502;-67
2023/04/15 14:35:45;;;;;;;2.55;1.08;;;;;;;14.29;44.89;99627.03;5072265;28;20106;-65
2023/04/15 14:38:11;;;;;;;2.42;0.90;;;;;;;14.24;45.11;99640.25;5073206;28;20032;-68
2023/04/15 14:40:36;;;;;;;4.50;1.23;;;;;;;14.37;44.88;99639.38;5073523;28;20055;-68
2023/04/15 14:43:02;;;;;;;2.33;1.02;;;;;;;14.43;45.78;99640.38;5073522;28;20136;-67
2023/04/15 14:45:29;;;;;;;1.67;0.90;;;;;;;14.11;47.53;99643.78;5073389;28;20123;-67
2023/04/15 14:47:55;;;;;;;3.53;0.90;;;;;;;14.28;44.24;99649.50;5073221;28;20494;-67
2023/04/15 14:50:20;;;;;;;2.50;0.88;;;;;;;14.20;43.81;99652.41;5073370;28;20298;-67
2023/04/15 14:52:46;;;;;;;1.25;1.00;;;;;;;14.27;42.75;99661.22;5073292;28;20040;-67
2023/04/15 14:55:11;;;;;;;2.05;0.80;;;;;;;14.35;43.00;99655.66;5073060;28;20432;-66
2023/04/15 14:57:38;;;;;;;1.98;0.80;;;;;;;14.31;44.29;99657.09;5072912;28;20029;-67
2023/04/15 15:00:06;;;;;;;1.50;0.82;;;;;;;14.42;44.08;99657.50;5073193;28;20041;-67
2023/04/15 15:02:32;;;;;;;0.77;0.70;;;;;;;14.31;43.20;99665.16;5073137;28;20032;-68
2023/04/15 15:05:01;;;;;;;1.48;1.10;;;;;;;14.25;44.94;99674.03;5072388;28;20039;-67
2023/04/15 15:07:26;;;;;;;1.38;1.15;;;;;;;13.94;43.99;99671.22;5072513;28;20127;-67
2023/04/15 15:09:52;;;;;;;3.05;0.82;;;;;;;14.05;42.99;99670.59;5072921;28;20169;-67
2023/04/15 15:12:18;;;;;;;1.58;0.80;;;;;;;13.77;43.03;99670.84;5072858;28;20044;-66
2023/04/15 15:14:43;;;;;;;0.95;0.65;;;;;;;13.88;44.14;99672.88;5072818;28;20044;-67
2023/04/15 15:17:09;;;;;;;2.17;0.85;;;;;;;14.03;45.58;99676.16;5072459;28;20040;-66
2023/04/15 15:19:34;;;;;;;0.52;0.52;;;;;;;14.08;43.21;99683.53;5072711;28;20501;-67
2023/04/15 15:22:00;;;;;;;1.30;0.90;;;;;;;13.89;43.03;99676.38;5072556;28;20082;-66
2023/04/15 15:24:25;;;;;;;0.60;0.60;;;;;;;13.89;42.46;99687.94;5072618;28;20048;-67
2023/04/15 15:26:51;;;;;;;1.45;0.70;;;;;;;13.88;42.50;99683.56;5072486;28;20044;-67
2023/04/15 15:29:16;;;;;;;0.50;0.50;;;;;;;13.83;42.55;99694.09;5071310;28;20047;-67
2023/04/15 15:31:41;;;;;;;0.63;0.60;;;;;;;13.90;44.53;99694.91;5072485;28;20037;-68
2023/04/15 15:34:07;;;;;;;0.52;0.52;;;;;;;13.88;42.86;99696.13;5072682;28;20397;-68
2023/04/15 15:36:32;;;;;;;0.85;0.57;;;;;;;13.81;43.46;99701.50;5072325;28;20043;-67
2023/04/15 15:38:58;;;;;;;0.65;0.50;;;;;;;13.88;43.19;99705.00;5072406;28;20427;-67
2023/04/15 15:41:24;;;;;;;1.10;0.40;;;;;;;13.72;43.22;99689.38;5072415;28;20094;-68
2023/04/15 15:43:50;;;;;;;0.82;0.65;;;;;;;13.65;42.77;99713.47;5072348;28;20079;-67
2023/04/15 15:46:16;;;;;;;0.63;0.50;;;;;;;13.73;43.01;99707.06;5072265;28;20503;-68
2023/04/15 15:48:41;;;;;;;0.47;0.30;;;;;;;13.91;42.97;99717.16;5070725;28;20043;-66
2023/04/15 15:51:07;;;;;;;0.68;0.47;;;;;;;13.73;42.96;99710.56;5072204;28;20079;-66
2023/04/15 15:53:33;;;;;;;0.60;0.52;;;;;;;13.55;43.95;99716.53;5072135;28;20136;-66
2023/04/15 15:55:58;;;;;;;0.30;0.30;;;;;;;13.68;43.41;99726.41;5072124;28;20036;-68